createdAt,value
2019-02-14T00:02:26.090Z,20.20
2019-02-14T00:04:56.555Z,22.13
2019-02-14T00:07:27.005Z,19.77
2019-02-14T00:09:57.501Z,20.07
2019-02-14T00:12:28.430Z,21.67
2019-02-14T00:14:58.876Z,20.60
2019-02-14T00:17:29.320Z,20.50
2019-02-14T00:20:01.044Z,22.57
2019-02-14T00:22:31.889Z,21.12
2019-02-14T00:25:02.370Z,19.57
2019-02-14T00:27:32.872Z,20.70
2019-02-14T00:30:03.425Z,21.53
2019-02-14T00:32:34.194Z,21.03
2019-02-14T00:35:05.026Z,20.17
2019-02-14T00:37:35.513Z,20.15
2019-02-14T00:40:06.317Z,21.60
2019-02-14T00:42:37.190Z,20.88
2019-02-14T00:45:07.747Z,23.93
2019-02-14T00:47:38.233Z,23.47
2019-02-14T00:50:08.727Z,22.50
2019-02-14T00:52:39.187Z,22.40
2019-02-14T00:55:09.643Z,21.27
2019-02-14T00:57:40.442Z,21.12
2019-02-14T01:00:11.492Z,21.40
2019-02-14T01:02:42.093Z,18.42
2019-02-14T01:05:12.541Z,19.97
2019-02-14T01:07:43.053Z,19.98
2019-02-14T01:10:13.622Z,19.92
2019-02-14T01:12:44.397Z,19.40
2019-02-14T01:15:16.490Z,22.83
2019-02-14T01:17:46.941Z,23.40
2019-02-14T01:20:17.401Z,22.23
2019-02-14T01:22:47.854Z,23.90
2019-02-14T01:25:18.304Z,22.47
2019-02-14T01:27:48.774Z,21.15
2019-02-14T01:30:19.293Z,20.73
2019-02-14T01:32:49.766Z,22.65
2019-02-14T01:35:20.240Z,25.03
2019-02-14T01:37:52.124Z,23.15
2019-02-14T01:40:22.548Z,23.80
2019-02-14T01:42:53.046Z,23.13
2019-02-14T01:45:23.515Z,23.23
2019-02-14T01:47:54.348Z,19.45
2019-02-14T01:50:25.300Z,21.48
2019-02-14T01:52:55.764Z,22.90
2019-02-14T01:55:26.239Z,22.70
2019-02-14T01:57:56.721Z,26.17
2019-02-14T02:00:27.181Z,23.40
2019-02-14T02:02:57.625Z,20.10
2019-02-14T02:05:28.241Z,24.55
2019-02-14T02:07:58.679Z,25.23
2019-02-14T02:10:29.192Z,22.62
2019-02-14T02:12:59.630Z,24.83
2019-02-14T02:15:30.109Z,21.05
2019-02-14T02:18:00.559Z,24.18
2019-02-14T02:20:33.390Z,23.80
2019-02-14T02:23:03.265Z,23.33
2019-02-14T02:25:33.719Z,22.90
2019-02-14T02:28:04.489Z,29.33
2019-02-14T02:30:34.941Z,27.02
2019-02-14T02:33:05.972Z,26.00
2019-02-14T02:35:36.428Z,23.18
2019-02-14T02:38:06.888Z,25.32
2019-02-14T02:40:37.750Z,25.37
2019-02-14T02:43:08.209Z,24.00
2019-02-14T02:45:38.689Z,28.13
2019-02-14T02:48:09.157Z,30.17
2019-02-14T02:50:39.619Z,30.63
2019-02-14T02:53:10.092Z,30.40
2019-02-14T02:55:40.550Z,29.50
2019-02-14T02:58:11.030Z,26.30
2019-02-14T03:00:41.898Z,27.60
2019-02-14T03:03:12.365Z,27.57
2019-02-14T03:05:42.853Z,24.57
2019-02-14T03:08:13.337Z,23.47
2019-02-14T03:10:43.857Z,23.77
2019-02-14T03:13:15.372Z,25.83
2019-02-14T03:15:45.821Z,25.00
2019-02-14T03:18:16.568Z,27.00
2019-02-14T03:20:47.025Z,25.37
2019-02-14T03:23:17.776Z,25.03
2019-02-14T03:25:48.224Z,25.15
2019-02-14T03:28:18.688Z,25.57
2019-02-14T03:30:50.201Z,24.23
2019-02-14T03:33:20.687Z,23.65
2019-02-14T03:35:51.153Z,26.95
2019-02-14T03:38:21.724Z,26.20
2019-02-14T03:40:52.168Z,26.97
2019-02-14T03:43:22.886Z,25.73
2019-02-14T03:45:53.336Z,28.02
2019-02-14T03:48:24.125Z,26.07
2019-02-14T03:50:54.958Z,24.37
2019-02-14T03:53:25.421Z,25.17
2019-02-14T03:55:55.888Z,26.33
2019-02-14T03:58:26.438Z,24.53
2019-02-14T04:00:56.884Z,28.23
2019-02-14T04:03:27.352Z,29.10
2019-02-14T04:05:57.820Z,30.43
2019-02-14T04:08:28.281Z,29.27
2019-02-14T04:10:58.738Z,28.93
2019-02-14T04:13:29.184Z,25.25
2019-02-14T04:15:59.637Z,28.53
2019-02-14T04:18:30.096Z,27.90
2019-02-14T04:21:00.917Z,28.05
2019-02-14T04:23:31.361Z,29.48
2019-02-14T04:26:01.792Z,29.40
2019-02-14T04:28:32.346Z,28.83
2019-02-14T04:31:02.793Z,24.93
2019-02-14T04:33:33.278Z,22.85
2019-02-14T04:36:04.643Z,26.97
2019-02-14T04:38:35.077Z,24.82
2019-02-14T04:41:05.521Z,27.13
2019-02-14T04:43:35.990Z,24.80
2019-02-14T04:46:06.408Z,24.43
2019-02-14T04:48:36.866Z,22.37
2019-02-14T04:51:07.319Z,24.83
2019-02-14T04:53:37.754Z,24.07
2019-02-14T04:56:08.188Z,25.20
2019-02-14T04:58:38.715Z,23.70
2019-02-14T05:01:09.174Z,23.77
2019-02-14T05:03:39.765Z,23.20
2019-02-14T05:06:10.206Z,30.00
2019-02-14T05:08:40.661Z,29.30
2019-02-14T05:11:11.092Z,23.80
2019-02-14T05:13:41.912Z,25.33
2019-02-14T05:16:12.713Z,22.42
2019-02-14T05:18:43.172Z,22.35
2019-02-14T05:21:13.615Z,26.07
2019-02-14T05:23:44.057Z,23.40
2019-02-14T05:26:14.492Z,26.60
2019-02-14T05:28:44.957Z,30.08
2019-02-14T05:31:15.409Z,30.17
2019-02-14T05:33:45.889Z,28.10
2019-02-14T05:36:16.329Z,26.87
2019-02-14T05:38:46.773Z,26.10
2019-02-14T05:41:17.216Z,30.87
2019-02-14T05:43:47.693Z,34.75
2019-02-14T05:46:18.169Z,31.00
2019-02-14T05:48:48.992Z,31.70
2019-02-14T05:51:19.433Z,31.80
2019-02-14T05:53:49.876Z,26.13
2019-02-14T05:56:20.309Z,29.13
2019-02-14T05:58:50.824Z,34.98
2019-02-14T06:01:21.333Z,34.63
2019-02-14T06:03:52.146Z,34.03
2019-02-14T06:06:22.603Z,28.42
2019-02-14T06:08:53.046Z,29.17
2019-02-14T06:11:23.520Z,28.35
2019-02-14T06:13:54.929Z,33.42
2019-02-14T06:16:25.373Z,28.47
2019-02-14T06:18:56.984Z,30.05
2019-02-14T06:21:27.412Z,30.15
2019-02-14T06:23:58.224Z,29.37
2019-02-14T06:26:28.668Z,31.48
2019-02-14T06:28:59.105Z,31.07
2019-02-14T06:31:29.560Z,28.83
2019-02-14T06:34:00.033Z,33.78
2019-02-14T06:36:30.473Z,39.80
2019-02-14T06:39:00.910Z,32.10
2019-02-14T06:41:33.165Z,31.23
2019-02-14T06:44:03.628Z,34.58
2019-02-14T06:46:34.085Z,31.47
2019-02-14T06:49:04.549Z,30.80
2019-02-14T06:51:35.004Z,32.57
2019-02-14T06:54:05.750Z,28.45
2019-02-14T06:56:36.183Z,33.20
2019-02-14T06:59:06.650Z,34.45
2019-02-14T07:01:37.107Z,33.37
2019-02-14T07:04:07.581Z,34.50
2019-02-14T07:06:38.045Z,32.90
2019-02-14T07:09:08.526Z,35.10
2019-02-14T07:11:38.970Z,35.60
2019-02-14T07:14:09.465Z,36.00
2019-02-14T07:16:39.932Z,36.28
2019-02-14T07:19:10.729Z,31.17
2019-02-14T07:21:41.189Z,33.70
2019-02-14T07:24:12.500Z,29.70
2019-02-14T07:26:42.977Z,30.90
2019-02-14T07:29:13.529Z,32.10
2019-02-14T07:31:44.037Z,35.17
2019-02-14T07:34:14.513Z,29.87
2019-02-14T07:36:44.993Z,29.92
2019-02-14T07:39:15.482Z,30.68
2019-02-14T07:41:45.943Z,32.47
2019-02-14T07:44:16.444Z,28.83
2019-02-14T07:46:46.897Z,28.73
2019-02-14T07:49:17.341Z,29.67
2019-02-14T07:51:48.650Z,27.47
2019-02-14T07:54:19.228Z,30.70
2019-02-14T07:56:49.673Z,31.17
2019-02-14T07:59:20.145Z,30.57
2019-02-14T08:01:50.849Z,32.93
2019-02-14T08:04:21.306Z,29.02
2019-02-14T08:06:51.757Z,29.75
2019-02-14T08:09:22.226Z,31.00
2019-02-14T08:11:53.025Z,27.43
2019-02-14T08:14:23.492Z,28.02
2019-02-14T08:16:53.957Z,33.18
2019-02-14T08:19:24.418Z,30.82
2019-02-14T08:21:54.865Z,29.75
2019-02-14T08:24:25.343Z,30.57
2019-02-14T08:26:55.801Z,33.47
2019-02-14T08:29:26.268Z,32.58
2019-02-14T08:31:56.744Z,33.87
2019-02-14T08:34:27.224Z,35.48
2019-02-14T08:36:57.692Z,32.40
2019-02-14T08:39:28.144Z,36.75
2019-02-14T08:41:58.588Z,35.28
2019-02-14T08:44:29.364Z,35.65
2019-02-14T08:47:00.508Z,32.97
2019-02-14T08:49:31.054Z,31.37
2019-02-14T08:52:01.509Z,33.25
2019-02-14T08:54:32.305Z,34.57
2019-02-14T08:57:03.236Z,34.37
2019-02-14T08:59:33.709Z,32.73
2019-02-14T09:02:04.496Z,34.13
2019-02-14T09:04:34.963Z,32.15
2019-02-14T09:07:05.408Z,34.03
2019-02-14T09:09:35.936Z,32.63
2019-02-14T09:12:06.398Z,31.70
2019-02-14T09:14:36.856Z,34.25
2019-02-14T09:17:07.305Z,34.92
2019-02-14T09:19:37.751Z,34.50
2019-02-14T09:22:09.135Z,36.23
2019-02-14T09:24:39.648Z,33.27
2019-02-14T09:27:10.101Z,33.53
2019-02-14T09:29:40.549Z,30.70
2019-02-14T09:32:11.405Z,35.15
2019-02-14T09:34:42.095Z,33.48
2019-02-14T09:37:12.565Z,31.73
2019-02-14T09:39:43.045Z,35.30
2019-02-14T09:42:13.813Z,35.88
2019-02-14T09:44:44.569Z,36.35
2019-02-14T09:47:15.052Z,35.73
2019-02-14T09:49:46.507Z,33.80
2019-02-14T09:52:16.962Z,35.85
2019-02-14T09:54:47.789Z,35.08
2019-02-14T09:57:18.244Z,36.73
2019-02-14T09:59:48.712Z,36.57
2019-02-14T10:02:19.148Z,36.38
2019-02-14T10:04:49.600Z,33.40
2019-02-14T10:07:20.094Z,35.87
2019-02-14T10:09:50.529Z,34.58
2019-02-14T10:12:21.356Z,35.53
2019-02-14T10:14:52.177Z,37.55
2019-02-14T10:17:22.682Z,36.93
2019-02-14T10:19:53.160Z,35.37
2019-02-14T10:22:23.676Z,36.35
2019-02-14T10:24:54.106Z,37.23
2019-02-14T10:27:24.550Z,39.58
2019-02-14T10:29:55.385Z,37.42
2019-02-14T10:32:25.827Z,36.90
2019-02-14T10:34:56.293Z,38.27
2019-02-14T10:37:26.751Z,39.60
2019-02-14T10:39:57.196Z,39.88
2019-02-14T10:42:27.704Z,38.85
2019-02-14T10:44:58.149Z,38.07
2019-02-14T10:47:28.668Z,37.60
2019-02-14T10:49:59.141Z,35.13
2019-02-14T10:52:29.865Z,36.63
2019-02-14T10:55:00.316Z,34.73
2019-02-14T10:57:31.076Z,33.97
2019-02-14T11:00:02.121Z,30.97
2019-02-14T11:02:32.869Z,31.27
2019-02-14T11:05:03.330Z,32.75
2019-02-14T11:07:34.141Z,30.93
2019-02-14T11:10:04.708Z,29.63
2019-02-14T11:12:35.184Z,28.45
2019-02-14T11:15:06.269Z,27.47
2019-02-14T11:17:36.728Z,27.15
2019-02-14T11:20:08.392Z,26.90
2019-02-14T11:22:38.839Z,25.72
2019-02-14T11:25:12.129Z,27.60
2019-02-14T11:27:42.595Z,25.70
2019-02-14T11:30:14.140Z,25.40
2019-02-14T11:32:44.592Z,25.97
2019-02-14T11:35:15.396Z,26.15
2019-02-14T11:37:45.863Z,24.70
2019-02-14T11:40:16.316Z,24.30
2019-02-14T11:42:47.137Z,25.40
2019-02-14T11:45:18.473Z,24.00
2019-02-14T11:47:48.934Z,25.65
2019-02-14T11:50:19.416Z,26.10
2019-02-14T11:52:50.212Z,23.73
2019-02-14T11:55:20.741Z,23.25
2019-02-14T11:57:51.209Z,25.32
2019-02-14T12:00:22.515Z,22.93
2019-02-14T12:02:56.038Z,23.35
2019-02-14T12:05:25.880Z,23.47
2019-02-14T12:07:56.435Z,24.05
2019-02-14T12:10:26.900Z,24.47
2019-02-14T12:12:57.366Z,23.75
2019-02-14T12:15:27.829Z,23.98
2019-02-14T12:17:58.289Z,24.55
2019-02-14T12:20:28.777Z,25.13
2019-02-14T12:22:59.246Z,24.47
2019-02-14T12:25:29.754Z,24.25
2019-02-14T12:28:00.246Z,24.18
2019-02-14T12:30:30.758Z,24.02
2019-02-14T12:33:01.202Z,23.45
2019-02-14T12:35:32.057Z,23.02
2019-02-14T12:38:02.515Z,23.77
2019-02-14T12:40:33.013Z,22.85
2019-02-14T12:43:03.822Z,23.22
2019-02-14T12:45:34.394Z,22.63
2019-02-14T12:48:04.848Z,23.27
2019-02-14T12:50:35.856Z,23.53
2019-02-14T12:53:06.766Z,23.00
2019-02-14T12:55:37.238Z,23.80
2019-02-14T12:58:08.133Z,23.90
2019-02-14T13:00:38.722Z,23.90
2019-02-14T13:03:09.174Z,23.32
2019-02-14T13:05:39.944Z,23.77
2019-02-14T13:08:10.410Z,23.38
2019-02-14T13:10:41.894Z,23.10
2019-02-14T13:13:12.713Z,23.12
2019-02-14T13:15:43.187Z,23.17
2019-02-14T13:18:13.666Z,23.32
2019-02-14T13:20:44.142Z,23.50
2019-02-14T13:23:14.621Z,24.03
2019-02-14T13:25:45.802Z,24.07
2019-02-14T13:28:16.265Z,23.22
2019-02-14T13:30:46.785Z,29.92
2019-02-14T13:33:17.591Z,22.37
2019-02-14T13:35:48.097Z,22.97
2019-02-14T13:38:18.557Z,23.12
2019-02-14T13:40:49.053Z,23.15
2019-02-14T13:43:19.537Z,22.77
2019-02-14T13:45:50.339Z,23.38
2019-02-14T13:48:20.869Z,23.17
2019-02-14T13:50:51.768Z,23.17
2019-02-14T13:53:22.230Z,23.65
2019-02-14T13:55:52.703Z,21.93
2019-02-14T13:58:23.194Z,22.52
2019-02-14T14:00:53.688Z,22.05
2019-02-14T14:03:24.180Z,23.15
2019-02-14T14:05:54.937Z,21.40
2019-02-14T14:08:25.398Z,21.87
2019-02-14T14:10:55.872Z,22.17
2019-02-14T14:13:26.396Z,22.93
2019-02-14T14:15:56.875Z,23.20
2019-02-14T14:18:27.558Z,22.85
2019-02-14T14:20:58.046Z,23.30
2019-02-14T14:23:28.573Z,24.25
2019-02-14T14:25:59.385Z,23.57
2019-02-14T14:28:29.861Z,22.47
2019-02-14T14:31:00.320Z,22.77
2019-02-14T14:33:30.797Z,22.85
2019-02-14T14:36:01.536Z,24.63
2019-02-14T14:38:31.973Z,21.73
2019-02-14T14:41:02.444Z,23.43
2019-02-14T14:44:04.685Z,24.40
2019-02-14T14:46:46.358Z,22.97
2019-02-14T14:49:17.468Z,22.90
2019-02-14T14:51:47.939Z,23.98
2019-02-14T14:54:18.436Z,22.57
2019-02-14T14:56:48.896Z,22.13
2019-02-14T14:59:19.377Z,22.27
2019-02-14T15:01:49.862Z,22.02
2019-02-14T15:04:20.713Z,22.97
2019-02-14T15:06:51.164Z,21.40
2019-02-14T15:09:21.597Z,21.00
2019-02-14T15:11:52.094Z,23.15
2019-02-14T15:14:22.549Z,21.13
2019-02-14T15:16:53.610Z,19.47
2019-02-14T15:19:24.069Z,19.10
2019-02-14T15:21:54.532Z,19.40
2019-02-14T15:24:24.978Z,19.25
2019-02-14T15:26:55.441Z,19.15
2019-02-14T15:29:25.921Z,21.30
2019-02-14T15:31:56.409Z,18.77
2019-02-14T15:34:26.880Z,19.47
2019-02-14T15:36:57.355Z,20.08
2019-02-14T15:39:27.849Z,19.67
2019-02-14T15:41:58.331Z,18.60
2019-02-14T15:44:29.199Z,19.87
2019-02-14T15:46:59.702Z,20.17
2019-02-14T15:49:30.129Z,18.52
2019-02-14T15:52:00.610Z,20.13
2019-02-14T15:54:33.102Z,19.50
2019-02-14T15:57:04.002Z,18.65
2019-02-14T15:59:34.844Z,18.60
2019-02-14T16:02:06.222Z,18.40
2019-02-14T16:04:37.493Z,19.17
2019-02-14T16:07:08.169Z,18.07
2019-02-14T16:09:41.303Z,19.05
2019-02-14T16:12:11.421Z,19.42
2019-02-14T16:14:42.769Z,19.60
2019-02-14T16:17:14.321Z,17.85
2019-02-14T16:19:44.793Z,19.02
2019-02-14T16:22:17.357Z,16.37
2019-02-14T16:24:47.774Z,15.50
2019-02-14T16:27:18.227Z,18.92
2019-02-14T16:29:50.851Z,18.07
2019-02-14T16:32:21.370Z,16.80
2019-02-14T16:34:51.839Z,17.10
2019-02-14T16:37:23.641Z,18.95
2019-02-14T16:39:54.699Z,16.45
2019-02-14T16:42:26.637Z,15.65
2019-02-14T16:44:57.816Z,18.43
2019-02-14T16:47:28.261Z,18.60
2019-02-14T16:49:58.802Z,19.65
2019-02-14T16:52:29.333Z,19.97
2019-02-14T16:54:59.789Z,20.82
2019-02-14T16:57:30.245Z,18.50
2019-02-14T17:00:00.703Z,19.37
2019-02-14T17:02:31.491Z,20.90
2019-02-14T17:05:01.952Z,18.00
2019-02-14T17:07:32.425Z,20.05
2019-02-14T17:10:02.954Z,18.10
2019-02-14T17:12:33.398Z,16.27
2019-02-14T17:15:03.840Z,17.62
2019-02-14T17:17:34.846Z,18.85
2019-02-14T17:20:07.219Z,20.77
2019-02-14T17:22:37.792Z,17.95
2019-02-14T17:25:08.413Z,19.05
2019-02-14T17:27:38.871Z,18.47
2019-02-14T17:30:09.423Z,20.95
2019-02-14T17:32:39.877Z,17.65
2019-02-14T17:35:10.327Z,22.25
2019-02-14T17:37:40.813Z,20.13
2019-02-14T17:40:11.279Z,18.48
2019-02-14T17:42:41.719Z,19.12
2019-02-14T17:45:12.260Z,19.77
2019-02-14T17:47:42.854Z,18.87
2019-02-14T17:50:13.293Z,19.10
2019-02-14T17:52:43.761Z,20.68
2019-02-14T17:55:14.463Z,20.20
2019-02-14T17:57:44.944Z,18.83
2019-02-14T18:00:15.462Z,21.17
2019-02-14T18:02:46.249Z,20.50
2019-02-14T18:05:17.293Z,21.62
2019-02-14T18:07:47.768Z,18.52
2019-02-14T18:10:18.234Z,20.20
2019-02-14T18:12:48.695Z,19.02
2019-02-14T18:15:20.096Z,20.73
2019-02-14T18:17:50.566Z,20.00
2019-02-14T18:20:21.019Z,20.45
2019-02-14T18:22:51.453Z,21.30
2019-02-14T18:25:22.300Z,23.93
2019-02-14T18:27:52.768Z,20.35
2019-02-14T18:30:23.211Z,20.23
2019-02-14T18:32:53.720Z,21.73
2019-02-14T18:35:24.216Z,23.12
2019-02-14T18:37:54.985Z,21.10
2019-02-14T18:40:25.787Z,19.95
2019-02-14T18:42:56.249Z,20.48
2019-02-14T18:45:27.077Z,20.13
2019-02-14T18:47:57.549Z,20.40
2019-02-14T18:50:27.989Z,22.90
2019-02-14T18:52:58.538Z,22.05
2019-02-14T18:55:28.965Z,21.40
2019-02-14T18:57:59.783Z,22.50
2019-02-14T19:00:30.229Z,23.87
2019-02-14T19:03:00.687Z,22.10
2019-02-14T19:05:31.216Z,24.30
2019-02-14T19:08:01.722Z,26.27
2019-02-14T19:10:33.493Z,25.97
2019-02-14T19:13:03.990Z,28.25
2019-02-14T19:15:34.856Z,26.73
2019-02-14T19:18:05.337Z,23.43
2019-02-14T19:20:35.796Z,25.27
2019-02-14T19:23:06.284Z,25.92
2019-02-14T19:25:37.116Z,25.08
2019-02-14T19:28:07.624Z,25.70
2019-02-14T19:30:38.081Z,25.77
2019-02-14T19:33:09.021Z,25.53
2019-02-14T19:35:39.466Z,26.93
2019-02-14T19:38:09.997Z,27.50
2019-02-14T19:40:40.437Z,27.10
2019-02-14T19:43:10.881Z,27.45
2019-02-14T19:45:41.314Z,29.35
2019-02-14T19:48:11.760Z,28.23
2019-02-14T19:50:42.233Z,28.83
2019-02-14T19:53:12.798Z,26.50
2019-02-14T19:55:43.237Z,26.57
2019-02-14T19:58:13.685Z,26.57
2019-02-14T20:00:44.521Z,27.10
2019-02-14T20:03:15.266Z,26.17
2019-02-14T20:05:45.698Z,23.45
2019-02-14T20:08:16.145Z,23.70
2019-02-14T20:10:46.572Z,29.07
2019-02-14T20:13:17.035Z,28.87
2019-02-14T20:15:47.492Z,27.63
2019-02-14T20:18:19.096Z,26.48
2019-02-14T20:20:49.545Z,32.07
2019-02-14T20:23:20.021Z,32.73
2019-02-14T20:25:50.833Z,31.57
2019-02-14T20:28:21.404Z,26.10
2019-02-14T20:30:51.846Z,29.55
2019-02-14T20:33:22.295Z,29.93
2019-02-14T20:35:52.732Z,26.23
2019-02-14T20:38:23.177Z,26.67
2019-02-14T20:40:53.649Z,28.93
2019-02-14T20:43:24.119Z,32.28
2019-02-14T20:45:54.541Z,28.57
2019-02-14T20:48:24.990Z,26.70
2019-02-14T20:50:55.433Z,27.85
2019-02-14T20:53:25.894Z,27.03
2019-02-14T20:55:56.329Z,25.80
2019-02-14T20:58:26.825Z,29.47
2019-02-14T21:00:57.758Z,23.87
2019-02-14T21:03:28.573Z,26.80
2019-02-14T21:05:59.021Z,28.47
2019-02-14T21:08:29.477Z,27.03
2019-02-14T21:10:59.937Z,26.87
2019-02-14T21:13:30.418Z,27.57
2019-02-14T21:16:00.866Z,27.55
2019-02-14T21:18:31.377Z,30.13
2019-02-14T21:21:01.818Z,28.17
2019-02-14T21:23:32.253Z,27.87
2019-02-14T21:26:03.029Z,28.50
2019-02-14T21:28:33.606Z,30.33
2019-02-14T21:31:04.123Z,30.65
2019-02-14T21:33:34.666Z,34.63
2019-02-14T21:36:05.117Z,31.23
2019-02-14T21:38:35.947Z,29.73
2019-02-14T21:41:06.690Z,30.52
2019-02-14T21:43:37.658Z,30.10
2019-02-14T21:46:08.189Z,27.30
2019-02-14T21:48:38.669Z,26.93
2019-02-14T21:51:09.126Z,30.95
2019-02-14T21:53:39.614Z,31.40
2019-02-14T21:56:10.114Z,35.33
2019-02-14T21:58:40.575Z,30.70
2019-02-14T22:01:12.210Z,31.30
2019-02-14T22:03:42.951Z,30.92
2019-02-14T22:06:13.389Z,31.25
2019-02-14T22:08:45.274Z,31.35
2019-02-14T22:11:16.704Z,25.52
2019-02-14T22:13:47.169Z,28.57
2019-02-14T22:16:17.607Z,29.72
2019-02-14T22:18:48.071Z,29.60
2019-02-14T22:21:18.717Z,30.35
2019-02-14T22:23:49.149Z,30.30
2019-02-14T22:26:19.988Z,30.47
2019-02-14T22:28:50.445Z,30.95
2019-02-14T22:31:20.889Z,29.63
2019-02-14T22:33:51.394Z,29.48
2019-02-14T22:36:22.210Z,31.73
2019-02-14T22:38:52.679Z,31.15
2019-02-14T22:41:23.116Z,26.87
2019-02-14T22:43:53.566Z,29.30
2019-02-14T22:46:24.033Z,30.67
2019-02-14T22:48:54.491Z,30.47
2019-02-14T22:51:24.973Z,33.20
2019-02-14T22:53:55.449Z,31.17
2019-02-14T22:56:26.733Z,28.63
2019-02-14T22:58:57.197Z,31.62
2019-02-14T23:01:27.634Z,31.77
2019-02-14T23:03:58.095Z,27.07
2019-02-14T23:06:28.957Z,28.77
2019-02-14T23:08:59.492Z,30.95
2019-02-14T23:11:29.950Z,27.32
2019-02-14T23:14:00.397Z,27.35
2019-02-14T23:16:30.836Z,28.43
2019-02-14T23:19:02.276Z,29.30
2019-02-14T23:21:32.768Z,28.00
2019-02-14T23:24:03.253Z,28.03
2019-02-14T23:26:33.730Z,28.45
2019-02-14T23:29:04.188Z,30.07
2019-02-14T23:31:34.645Z,28.50
2019-02-14T23:34:05.098Z,28.42
2019-02-14T23:36:35.579Z,28.02
2019-02-14T23:39:07.398Z,28.67
2019-02-14T23:41:38.822Z,26.85
2019-02-14T23:44:09.348Z,27.15
2019-02-14T23:46:40.144Z,27.95
2019-02-14T23:49:10.933Z,28.17
2019-02-14T23:51:41.400Z,28.30
2019-02-14T23:54:11.901Z,29.30
2019-02-14T23:56:42.347Z,30.12
2019-02-14T23:59:12.811Z,28.07
